Airfield :
LOGIN :

Register | Disclaimer

   EN    FR    IT 

 










Legend :    VFR   Marginal VFR   IFR   Intensive IFR   Very Intensive IFR
Visi :
Ceiling :
>= 8 km
>= 3000ft
5 to 8 km
1000 to 3000 ft
1500m to 5 km
500 to 1000 ft
800 to 1500m
200 to 500 ft
< 800m
< 200 ft
Symbols :   Thunderstorms  Fog  Heavy snow  Heavy precipitations  Wind > 20 kt
SIGMETs :     Misc.  Thunderstorms  Icing  Turbulence  Mountain Waves  Volcanic Ashes






- Airport Elevation : 256 ft
- IATA code : GOJ


UWGG - Nizhny Novgorod International

CURRENT METAR :
  • 270330Z 36003MPS 9999 BKN016 11/09 Q1021 R36R/290050 NOSIG

EXPIRED METARs :
  • 270300Z 36002MPS 9999 BKN016 10/09 Q1021 R36R/290050 NOSIG
  • 270230Z 35002MPS 9999 BKN016 10/09 Q1021 R36R/290050 NOSIG
  • 270200Z 32001MPS 9999 BKN016 10/09 Q1021 R36R/290050 NOSIG
  • 270130Z VRB01MPS 9999 BKN013 10/09 Q1021 R36R/290050 NOSIG
  • 270100Z 02004MPS 9999 -RA BKN013 10/09 Q1022 R36R/290050 NOSIG

TAF TAF UWGG
Valid from the 27 at 03:00 until the 28 at 03:00 UTC


270145Z 2703/2803 02003MPS 9999 BKN016 TX15/2715Z TN09/2703Z



MET'MAP, your aeronautical weather chart ! - Copyright ORBIFLY December 2007 - Disclaimer

ORBIFLY MET'MAP TEAM :

Programming & Development : Alexandra Zaïnal
Concept & original design : Baudouin d'Aumeries
Assistance for programming : Marc-Olivier Méhu
Technical & hardware support : Manuel Goepfert

Contact : metmap@orbifly.com




SOURCES & CREDITS :

   NOAA